createdAt,value
2018-11-26T00:01:23.276Z,60.47
2018-11-26T00:03:52.471Z,62.53
2018-11-26T00:06:21.714Z,47.17
2018-11-26T00:08:50.913Z,67.23
2018-11-26T00:11:32.233Z,71.83
2018-11-26T00:14:01.411Z,61.83
2018-11-26T00:16:30.582Z,71.60
2018-11-26T00:18:59.784Z,69.57
2018-11-26T00:21:30.025Z,83.27
2018-11-26T00:23:59.214Z,39.80
2018-11-26T00:26:28.446Z,69.13
2018-11-26T00:28:57.603Z,88.63
2018-11-26T00:31:26.746Z,43.33
2018-11-26T00:33:55.978Z,66.27
2018-11-26T00:36:25.413Z,64.20
2018-11-26T00:38:54.565Z,41.57
2018-11-26T00:41:23.787Z,66.20
2018-11-26T00:43:52.929Z,72.10
2018-11-26T00:46:22.083Z,81.00
2018-11-26T00:48:51.269Z,106.83
2018-11-26T00:51:20.413Z,82.93
2018-11-26T00:53:49.545Z,41.47
2018-11-26T00:56:18.743Z,38.10
2018-11-26T00:58:47.889Z,44.30
2018-11-26T01:01:17.034Z,54.80
2018-11-26T01:03:46.551Z,80.30
2018-11-26T01:06:15.714Z,79.33
2018-11-26T01:08:44.877Z,70.60
2018-11-26T01:11:14.314Z,53.50
2018-11-26T01:13:43.463Z,97.90
2018-11-26T01:16:12.592Z,66.60
2018-11-26T01:18:41.782Z,90.27
2018-11-26T01:21:10.938Z,90.70
2018-11-26T01:23:40.098Z,60.17
2018-11-26T01:26:09.298Z,78.20
2018-11-26T01:28:38.437Z,80.80
2018-11-26T01:31:07.699Z,91.37
2018-11-26T01:33:36.895Z,58.40
2018-11-26T01:36:06.398Z,68.27
2018-11-26T01:38:35.550Z,69.20
2018-11-26T01:41:04.742Z,79.83
2018-11-26T01:43:33.896Z,87.20
2018-11-26T01:46:03.087Z,69.47
2018-11-26T01:48:32.252Z,79.97
2018-11-26T01:51:01.411Z,89.53
2018-11-26T01:53:30.581Z,80.23
2018-11-26T01:55:59.724Z,110.23
2018-11-26T01:58:28.869Z,92.27
2018-11-26T02:00:58.042Z,56.17
2018-11-26T02:03:28.255Z,96.33
2018-11-26T02:05:57.910Z,75.87
2018-11-26T02:08:27.085Z,70.97
2018-11-26T02:10:56.289Z,65.67
2018-11-26T02:13:25.497Z,73.97
2018-11-26T02:15:54.658Z,60.23
2018-11-26T02:18:23.814Z,71.93
2018-11-26T02:20:52.985Z,78.27
2018-11-26T02:23:22.150Z,72.73
2018-11-26T02:25:51.378Z,79.27
2018-11-26T02:28:20.565Z,83.53
2018-11-26T02:30:49.732Z,77.87
2018-11-26T02:33:18.895Z,82.90
2018-11-26T02:35:48.070Z,61.80
2018-11-26T02:38:17.208Z,71.50
2018-11-26T02:40:46.383Z,76.90
2018-11-26T02:43:15.572Z,61.37
2018-11-26T02:45:44.739Z,75.00
2018-11-26T02:48:13.927Z,71.80
2018-11-26T02:50:43.127Z,62.47
2018-11-26T02:53:12.261Z,72.63
2018-11-26T02:55:41.421Z,70.30
2018-11-26T02:58:10.604Z,73.83
2018-11-26T03:00:39.746Z,84.40
2018-11-26T03:03:08.891Z,65.00
2018-11-26T03:05:38.128Z,53.93
2018-11-26T03:08:07.590Z,68.27
2018-11-26T03:10:36.742Z,63.13
2018-11-26T03:13:06.269Z,64.83
2018-11-26T03:15:35.407Z,68.40
2018-11-26T03:18:04.546Z,52.10
2018-11-26T03:20:33.725Z,60.40
2018-11-26T03:23:02.882Z,60.10
2018-11-26T03:25:32.017Z,56.10
2018-11-26T03:28:01.236Z,57.63
2018-11-26T03:30:30.394Z,58.63
2018-11-26T03:32:59.575Z,54.97
2018-11-26T03:35:28.761Z,62.73
2018-11-26T03:37:57.911Z,57.97
2018-11-26T03:40:27.053Z,63.30
2018-11-26T03:42:56.265Z,56.07
2018-11-26T03:45:25.403Z,56.23
2018-11-26T03:47:54.544Z,58.93
2018-11-26T03:50:23.798Z,52.53
2018-11-26T03:52:52.942Z,56.90
2018-11-26T03:55:22.123Z,58.73
2018-11-26T03:57:51.306Z,46.03
2018-11-26T04:00:20.461Z,55.07
2018-11-26T04:02:49.618Z,56.43
2018-11-26T04:05:18.819Z,47.13
2018-11-26T04:07:47.987Z,45.40
2018-11-26T04:10:17.293Z,41.50
2018-11-26T04:12:46.450Z,49.47
2018-11-26T04:15:16.150Z,42.00
2018-11-26T04:17:45.374Z,41.10
2018-11-26T04:20:14.618Z,41.67
2018-11-26T04:22:43.803Z,34.90
2018-11-26T04:25:12.992Z,41.37
2018-11-26T04:27:42.166Z,37.63
2018-11-26T04:30:12.880Z,43.87
2018-11-26T04:32:42.074Z,35.93
2018-11-26T04:35:11.550Z,39.57
2018-11-26T04:37:40.690Z,37.77
2018-11-26T04:40:11.249Z,39.90
2018-11-26T04:42:40.389Z,40.23
2018-11-26T04:45:10.827Z,41.93
2018-11-26T04:47:40.170Z,36.57
2018-11-26T04:50:11.334Z,41.50
2018-11-26T04:52:40.789Z,40.63
2018-11-26T04:55:11.874Z,44.13
2018-11-26T04:57:42.725Z,31.60
2018-11-26T05:00:13.846Z,49.20
2018-11-26T05:02:43.332Z,35.63
2018-11-26T05:05:13.572Z,38.83
2018-11-26T05:07:42.745Z,42.53
2018-11-26T05:10:14.370Z,41.23
2018-11-26T05:12:43.879Z,32.97
2018-11-26T05:15:13.936Z,45.87
2018-11-26T05:17:43.150Z,56.37
2018-11-26T05:20:13.679Z,57.17
2018-11-26T05:22:43.098Z,34.70
2018-11-26T05:25:12.827Z,39.83
2018-11-26T05:27:42.123Z,39.60
2018-11-26T05:30:13.618Z,40.80
2018-11-26T05:32:43.227Z,48.77
2018-11-26T05:35:13.254Z,50.20
2018-11-26T05:37:42.430Z,53.13
2018-11-26T05:40:13.530Z,52.07
2018-11-26T05:42:43.224Z,52.17
2018-11-26T05:45:16.075Z,57.77
2018-11-26T05:47:45.218Z,56.87
2018-11-26T05:50:15.499Z,71.83
2018-11-26T05:52:44.700Z,54.80
2018-11-26T05:55:15.609Z,50.83
2018-11-26T05:57:46.057Z,64.17
2018-11-26T06:00:23.455Z,62.50
2018-11-26T06:02:52.912Z,55.67
2018-11-26T06:05:22.054Z,74.47
2018-11-26T06:07:51.206Z,62.27
2018-11-26T06:10:22.446Z,70.07
2018-11-26T06:12:51.775Z,48.67
2018-11-26T06:15:20.914Z,76.80
2018-11-26T06:17:50.115Z,67.67
2018-11-26T06:20:19.758Z,56.60
2018-11-26T06:22:48.756Z,58.10
2018-11-26T06:25:19.824Z,72.93
2018-11-26T06:27:49.444Z,62.10
2018-11-26T06:30:20.163Z,53.97
2018-11-26T06:32:49.362Z,68.23
2018-11-26T06:35:23.194Z,71.70
2018-11-26T06:37:52.410Z,53.47
2018-11-26T06:40:21.582Z,47.53
2018-11-26T06:42:50.738Z,71.87
2018-11-26T06:45:22.491Z,61.87
2018-11-26T06:47:51.923Z,66.00
2018-11-26T06:50:21.773Z,64.70
2018-11-26T06:52:50.942Z,60.23
2018-11-26T06:55:21.477Z,44.67
2018-11-26T06:57:50.659Z,51.10
2018-11-26T07:00:20.552Z,66.47
2018-11-26T07:02:49.883Z,57.60
2018-11-26T07:05:21.606Z,82.90
2018-11-26T07:07:50.808Z,73.60
2018-11-26T07:10:21.082Z,73.07
2018-11-26T07:12:50.259Z,72.97
2018-11-26T07:15:21.066Z,74.27
2018-11-26T07:17:50.793Z,64.60
2018-11-26T07:20:22.014Z,66.20
2018-11-26T07:22:51.243Z,61.53
2018-11-26T07:25:21.433Z,74.80
2018-11-26T07:27:53.598Z,67.50
2018-11-26T07:30:25.785Z,61.87
2018-11-26T07:32:54.946Z,64.07
2018-11-26T07:35:24.123Z,70.50
2018-11-26T07:37:54.554Z,67.60
2018-11-26T07:40:24.111Z,58.83
2018-11-26T07:42:55.853Z,64.30
2018-11-26T07:45:24.997Z,56.40
2018-11-26T07:47:54.147Z,79.77
2018-11-26T07:50:23.340Z,48.47
2018-11-26T07:52:52.492Z,62.87
2018-11-26T07:55:22.398Z,55.60
2018-11-26T07:57:51.750Z,55.87
2018-11-26T08:00:21.907Z,58.67
2018-11-26T08:02:51.475Z,63.17
2018-11-26T08:05:22.211Z,64.77
2018-11-26T08:07:51.378Z,48.70
2018-11-26T08:10:22.065Z,56.10
2018-11-26T08:12:52.813Z,47.93
2018-11-26T08:15:25.562Z,55.50
2018-11-26T08:17:54.717Z,49.73
2018-11-26T08:20:23.935Z,48.17
2018-11-26T08:22:53.130Z,71.23
2018-11-26T08:25:23.258Z,48.47
2018-11-26T08:27:52.691Z,55.57
2018-11-26T08:30:26.368Z,42.73
2018-11-26T08:32:59.618Z,64.60
2018-11-26T08:35:29.348Z,57.20
2018-11-26T08:38:03.822Z,42.50
2018-11-26T08:40:38.314Z,45.97
2018-11-26T08:43:07.523Z,52.60
2018-11-26T08:45:38.461Z,49.00
2018-11-26T08:48:13.216Z,48.30
2018-11-26T08:50:42.382Z,58.40
2018-11-26T08:53:11.564Z,67.00
2018-11-26T08:55:40.917Z,67.60
2018-11-26T08:58:10.087Z,56.70
2018-11-26T09:00:39.247Z,58.57
2018-11-26T09:03:13.546Z,52.90
2018-11-26T09:05:50.786Z,48.57
2018-11-26T09:08:19.987Z,60.47
2018-11-26T09:10:49.226Z,53.37
2018-11-26T09:13:18.381Z,69.57
2018-11-26T09:15:47.569Z,69.60
2018-11-26T09:18:16.726Z,42.03
2018-11-26T09:20:45.874Z,45.03
2018-11-26T09:23:15.053Z,54.47
2018-11-26T09:25:44.193Z,47.60
2018-11-26T09:28:13.601Z,49.47
2018-11-26T09:30:43.257Z,46.20
2018-11-26T09:33:12.446Z,54.73
2018-11-26T09:35:41.603Z,48.50
2018-11-26T09:38:10.771Z,42.60
2018-11-26T09:40:39.922Z,43.50
2018-11-26T09:43:09.155Z,46.30
2018-11-26T09:45:40.413Z,46.33
2018-11-26T09:48:07.592Z,45.10
2018-11-26T09:50:36.749Z,47.70
2018-11-26T09:53:06.238Z,55.87
2018-11-26T09:55:35.411Z,46.03
2018-11-26T09:58:04.809Z,59.20
2018-11-26T10:00:33.989Z,55.30
2018-11-26T10:03:03.174Z,44.27
2018-11-26T10:05:32.330Z,47.70
2018-11-26T10:08:01.506Z,46.43
2018-11-26T10:10:30.666Z,49.33
2018-11-26T10:12:59.845Z,57.70
2018-11-26T10:15:29.219Z,51.53
2018-11-26T10:17:58.375Z,49.03
2018-11-26T10:20:27.537Z,50.80
2018-11-26T10:22:56.714Z,59.90
2018-11-26T10:25:25.882Z,55.07
2018-11-26T10:27:55.068Z,55.03
2018-11-26T10:30:24.818Z,54.93
2018-11-26T10:32:54.389Z,52.00
2018-11-26T10:35:23.576Z,50.63
2018-11-26T10:37:52.779Z,50.83
2018-11-26T10:40:25.946Z,51.07
2018-11-26T10:42:55.123Z,56.50
2018-11-26T10:45:26.005Z,49.13
2018-11-26T10:47:55.202Z,57.53
2018-11-26T10:50:26.067Z,58.10
2018-11-26T10:52:57.314Z,61.43
2018-11-26T10:55:31.506Z,51.47
2018-11-26T10:58:00.690Z,44.77
2018-11-26T11:00:38.474Z,50.93
2018-11-26T11:03:07.698Z,50.77
2018-11-26T11:05:37.892Z,72.10
2018-11-26T11:08:08.157Z,61.60
2018-11-26T11:10:37.374Z,51.63
2018-11-26T11:13:07.441Z,63.73
2018-11-26T11:15:37.291Z,60.67
2018-11-26T11:18:08.003Z,55.37
2018-11-26T11:20:37.422Z,58.47
2018-11-26T11:23:07.962Z,54.73
2018-11-26T11:25:37.637Z,48.17
2018-11-26T11:28:07.893Z,45.57
2018-11-26T11:30:37.063Z,36.40
2018-11-26T11:35:35.453Z,41.13
2018-11-26T11:38:04.606Z,47.93
2018-11-26T11:40:33.799Z,50.70
2018-11-26T11:43:02.971Z,41.50
2018-11-26T11:45:33.734Z,44.80
2018-11-26T11:48:02.923Z,41.37
2018-11-26T11:50:32.071Z,43.23
2018-11-26T11:53:01.259Z,39.77
2018-11-26T11:55:30.492Z,38.43
2018-11-26T11:58:00.014Z,32.70
2018-11-26T12:00:34.447Z,33.33
2018-11-26T12:03:06.217Z,41.20
2018-11-26T12:05:35.405Z,38.97
2018-11-26T12:08:04.581Z,44.13
2018-11-26T12:10:33.745Z,42.13
2018-11-26T12:13:02.933Z,38.70
2018-11-26T12:15:32.139Z,39.43
2018-11-26T12:18:01.331Z,37.10
2018-11-26T12:20:30.518Z,36.07
2018-11-26T12:22:59.755Z,45.30
2018-11-26T12:25:28.948Z,42.47
2018-11-26T12:27:58.107Z,40.70
2018-11-26T12:30:29.176Z,32.30
2018-11-26T12:32:58.482Z,41.13
2018-11-26T12:35:27.677Z,29.83
2018-11-26T12:37:56.865Z,38.40
2018-11-26T12:40:27.009Z,38.03
2018-11-26T12:42:58.023Z,36.23
2018-11-26T12:45:29.743Z,31.70
2018-11-26T12:47:59.105Z,30.87
2018-11-26T12:50:28.321Z,27.90
2018-11-26T12:52:57.498Z,33.27
2018-11-26T12:55:27.038Z,29.03
2018-11-26T12:57:57.189Z,31.87
2018-11-26T13:00:29.784Z,34.37
2018-11-26T13:03:02.441Z,34.13
2018-11-26T13:05:31.652Z,23.67
2018-11-26T13:08:00.820Z,31.67
2018-11-26T13:10:30.036Z,28.57
2018-11-26T13:12:59.279Z,27.73
2018-11-26T13:15:29.613Z,32.03
2018-11-26T13:17:58.572Z,28.00
2018-11-26T13:20:29.738Z,30.60
2018-11-26T13:22:59.018Z,27.93
2018-11-26T13:25:32.720Z,35.40
2018-11-26T13:28:03.531Z,39.53
2018-11-26T13:30:38.062Z,31.90
2018-11-26T13:33:10.293Z,32.30
2018-11-26T13:35:39.951Z,30.33
2018-11-26T13:38:10.042Z,30.23
2018-11-26T13:40:39.248Z,28.87
2018-11-26T13:43:12.661Z,31.60
2018-11-26T13:45:47.560Z,29.90
2018-11-26T13:48:18.295Z,30.60
2018-11-26T13:50:52.083Z,27.73
2018-11-26T13:53:21.392Z,31.83
2018-11-26T13:55:50.555Z,45.37
2018-11-26T13:58:19.832Z,35.77
2018-11-26T14:00:49.421Z,36.10
2018-11-26T14:03:18.601Z,33.77
2018-11-26T14:05:47.762Z,40.63
2018-11-26T14:08:16.964Z,34.00
2018-11-26T14:10:46.141Z,38.90
2018-11-26T14:13:16.556Z,36.93
2018-11-26T14:15:45.758Z,42.50
2018-11-26T14:18:14.938Z,47.70
2018-11-26T14:20:44.493Z,48.70
2018-11-26T14:23:13.716Z,38.87
2018-11-26T14:25:42.909Z,38.60
2018-11-26T14:28:12.105Z,39.27
2018-11-26T14:30:41.563Z,46.83
2018-11-26T14:33:11.260Z,45.83
2018-11-26T14:35:40.445Z,38.30
2018-11-26T14:38:10.332Z,34.30
2018-11-26T14:40:46.852Z,38.57
2018-11-26T14:43:16.036Z,37.33
2018-11-26T14:45:45.216Z,34.37
2018-11-26T14:48:14.884Z,38.20
2018-11-26T14:50:44.075Z,38.80
2018-11-26T14:53:15.804Z,41.60
2018-11-26T14:55:44.983Z,31.37
2018-11-26T14:58:14.180Z,39.37
2018-11-26T15:00:43.404Z,32.27
2018-11-26T15:03:12.632Z,40.83
2018-11-26T15:05:41.887Z,38.27
2018-11-26T15:08:11.096Z,33.30
2018-11-26T15:10:40.296Z,36.47
2018-11-26T15:13:09.484Z,31.90
2018-11-26T15:15:38.961Z,26.47
2018-11-26T15:18:08.199Z,33.60
2018-11-26T15:20:37.420Z,31.83
2018-11-26T15:23:07.032Z,34.27
2018-11-26T15:25:36.187Z,37.70
2018-11-26T15:28:10.563Z,36.30
2018-11-26T15:30:39.966Z,38.77
2018-11-26T15:33:09.449Z,40.07
2018-11-26T15:35:38.669Z,40.73
2018-11-26T15:38:08.152Z,41.63
2018-11-26T15:40:37.777Z,42.60
2018-11-26T15:43:07.601Z,41.57
2018-11-26T15:45:37.531Z,46.83
2018-11-26T15:48:12.302Z,42.67
2018-11-26T15:50:41.834Z,43.43
2018-11-26T15:53:11.277Z,42.50
2018-11-26T15:55:40.500Z,45.00
2018-11-26T15:58:10.727Z,46.03
2018-11-26T16:00:40.215Z,36.57
2018-11-26T16:03:09.679Z,50.20
2018-11-26T16:05:38.982Z,42.53
2018-11-26T16:08:11.626Z,41.23
2018-11-26T16:10:40.841Z,47.67
2018-11-26T16:13:12.188Z,42.23
2018-11-26T16:15:44.221Z,41.57
2018-11-26T16:18:16.413Z,40.17
2018-11-26T16:20:45.618Z,42.87
2018-11-26T16:23:14.832Z,50.80
2018-11-26T16:25:45.692Z,45.93
2018-11-26T16:28:17.626Z,45.80
2018-11-26T16:30:46.791Z,40.77
2018-11-26T16:33:15.955Z,40.57
2018-11-26T16:35:45.148Z,43.23
2018-11-26T16:38:14.768Z,38.53
2018-11-26T16:40:44.004Z,40.53
2018-11-26T16:43:13.181Z,40.07
2018-11-26T16:45:42.379Z,33.47
2018-11-26T16:48:11.564Z,39.70
2018-11-26T16:50:40.743Z,40.60
2018-11-26T16:53:10.004Z,35.33
2018-11-26T16:55:39.217Z,28.87
2018-11-26T16:58:09.399Z,40.00
2018-11-26T17:00:38.639Z,44.63
2018-11-26T17:03:07.921Z,38.07
2018-11-26T17:05:40.228Z,53.30
2018-11-26T17:08:12.195Z,54.70
2018-11-26T17:10:41.919Z,42.10
2018-11-26T17:13:12.892Z,39.60
2018-11-26T17:15:42.448Z,38.57
2018-11-26T17:18:11.602Z,44.47
2018-11-26T17:20:40.866Z,42.00
2018-11-26T17:23:10.122Z,40.10
2018-11-26T17:25:39.295Z,40.90
2018-11-26T17:28:08.535Z,35.23
2018-11-26T17:30:39.537Z,40.80
2018-11-26T17:33:10.831Z,41.50
2018-11-26T17:35:40.118Z,41.87
2018-11-26T17:38:10.448Z,37.90
2018-11-26T17:40:41.727Z,35.97
2018-11-26T17:43:13.874Z,47.93
2018-11-26T17:45:43.299Z,38.10
2018-11-26T17:48:12.511Z,34.90
2018-11-26T17:50:43.562Z,35.23
2018-11-26T17:53:19.537Z,41.93
2018-11-26T17:55:55.503Z,36.27
2018-11-26T17:58:26.586Z,31.97
2018-11-26T18:01:03.386Z,38.33
2018-11-26T18:03:32.588Z,36.67
2018-11-26T18:06:02.524Z,36.30
2018-11-26T18:08:32.016Z,30.80
2018-11-26T18:11:01.196Z,36.03
2018-11-26T18:13:30.403Z,34.90
2018-11-26T18:16:00.359Z,43.50
2018-11-26T18:18:29.560Z,38.67
2018-11-26T18:20:58.744Z,38.40
2018-11-26T18:23:28.097Z,36.57
2018-11-26T18:25:57.268Z,36.30
2018-11-26T18:28:26.431Z,36.67
2018-11-26T18:30:56.723Z,33.10
2018-11-26T18:33:25.982Z,45.07
2018-11-26T18:35:55.165Z,42.93
2018-11-26T18:38:24.396Z,39.00
2018-11-26T18:40:53.594Z,31.40
2018-11-26T18:43:22.829Z,38.40
2018-11-26T18:45:52.061Z,42.17
2018-11-26T18:48:22.434Z,44.10
2018-11-26T18:50:50.464Z,48.30
2018-11-26T18:53:20.250Z,44.10
2018-11-26T18:55:50.207Z,34.33
2018-11-26T18:58:19.391Z,43.00
2018-11-26T19:00:52.319Z,46.17
2018-11-26T19:03:22.623Z,44.60
2018-11-26T19:05:53.740Z,47.73
2018-11-26T19:08:22.968Z,42.03
2018-11-26T19:10:58.274Z,44.27
2018-11-26T19:13:34.012Z,43.70
2018-11-26T19:16:11.528Z,37.90
2018-11-26T19:18:40.752Z,37.83
2018-11-26T19:21:09.937Z,38.70
2018-11-26T19:23:39.323Z,37.80
2018-11-26T19:26:08.864Z,43.40
2018-11-26T19:28:38.131Z,35.70
2018-11-26T19:31:08.277Z,38.80
2018-11-26T19:33:37.493Z,42.83
2018-11-26T19:36:07.683Z,38.80
2018-11-26T19:38:37.113Z,32.40
2018-11-26T19:41:06.671Z,33.70
2018-11-26T19:43:37.317Z,39.60
2018-11-26T19:46:08.195Z,41.03
2018-11-26T19:48:37.798Z,42.50
2018-11-26T19:51:07.693Z,42.00
2018-11-26T19:53:36.935Z,46.00
2018-11-26T19:56:06.267Z,46.80
2018-11-26T19:58:35.431Z,39.03
2018-11-26T20:01:04.628Z,36.40
2018-11-26T20:03:38.906Z,35.27
2018-11-26T20:06:14.098Z,39.03
2018-11-26T20:08:44.773Z,42.73
2018-11-26T20:11:14.431Z,42.43
2018-11-26T20:13:44.694Z,47.40
2018-11-26T20:16:22.715Z,40.67
2018-11-26T20:18:52.205Z,45.03
2018-11-26T20:21:21.388Z,46.37
2018-11-26T20:23:51.677Z,44.63
2018-11-26T20:26:21.057Z,40.60
2018-11-26T20:28:50.332Z,44.37
2018-11-26T20:31:19.499Z,44.17
2018-11-26T20:33:48.746Z,44.80
2018-11-26T20:36:17.983Z,54.63
2018-11-26T20:38:47.235Z,49.50
2018-11-26T20:41:16.475Z,44.60
2018-11-26T20:43:45.689Z,42.10
2018-11-26T20:46:15.002Z,45.17
2018-11-26T20:48:44.208Z,44.97
2018-11-26T20:51:14.642Z,45.83
2018-11-26T20:53:45.855Z,39.37
2018-11-26T20:56:17.446Z,41.90
2018-11-26T20:58:47.563Z,41.97
2018-11-26T21:01:17.416Z,40.60
2018-11-26T21:03:46.625Z,47.83
2018-11-26T21:06:15.826Z,43.43
2018-11-26T21:08:45.294Z,42.63
2018-11-26T21:11:14.668Z,45.87
2018-11-26T21:13:43.873Z,40.20
2018-11-26T21:16:13.138Z,44.43
2018-11-26T21:18:42.340Z,40.37
2018-11-26T21:21:11.903Z,44.43
2018-11-26T21:23:41.417Z,51.47
2018-11-26T21:26:10.661Z,61.03
2018-11-26T21:28:39.894Z,52.93
2018-11-26T21:31:09.297Z,53.07
2018-11-26T21:33:38.495Z,41.33
2018-11-26T21:36:08.331Z,41.50
2018-11-26T21:38:39.766Z,47.50
2018-11-26T21:41:08.948Z,45.17
2018-11-26T21:43:38.114Z,51.70
2018-11-26T21:46:08.322Z,47.50
2018-11-26T21:48:37.492Z,46.27
2018-11-26T21:51:06.980Z,43.60
2018-11-26T21:53:36.208Z,47.13
2018-11-26T21:56:05.478Z,45.90
2018-11-26T21:58:34.648Z,39.50
2018-11-26T22:01:07.172Z,42.80
2018-11-26T22:03:36.861Z,44.13
2018-11-26T22:06:06.787Z,51.33
2018-11-26T22:08:36.137Z,49.80
2018-11-26T22:11:05.792Z,43.13
2018-11-26T22:13:34.987Z,36.90
2018-11-26T22:16:04.204Z,48.30
2018-11-26T22:18:33.401Z,51.50
2018-11-26T22:21:02.767Z,45.10
2018-11-26T22:23:32.073Z,40.97
2018-11-26T22:26:01.247Z,51.90
2018-11-26T22:28:30.458Z,46.87
2018-11-26T22:30:59.651Z,51.73
2018-11-26T22:33:28.831Z,46.10
2018-11-26T22:35:58.129Z,43.60
2018-11-26T22:38:27.568Z,50.03
2018-11-26T22:40:56.747Z,46.57
2018-11-26T22:43:25.939Z,38.97
2018-11-26T22:45:56.127Z,42.23
2018-11-26T22:48:25.293Z,40.60
2018-11-26T22:50:54.470Z,47.20
2018-11-26T22:53:24.550Z,39.40
2018-11-26T22:55:53.738Z,39.33
2018-11-26T22:58:23.563Z,35.43
2018-11-26T23:00:54.366Z,39.63
2018-11-26T23:03:25.527Z,42.93
2018-11-26T23:05:54.699Z,33.50
2018-11-26T23:08:23.887Z,44.23
2018-11-26T23:10:53.366Z,38.63
2018-11-26T23:13:22.542Z,47.17
2018-11-26T23:15:51.698Z,39.13
2018-11-26T23:18:20.875Z,40.77
2018-11-26T23:20:50.049Z,44.00
2018-11-26T23:23:19.232Z,43.67
2018-11-26T23:25:48.403Z,47.17
2018-11-26T23:28:17.567Z,38.03
2018-11-26T23:30:46.736Z,36.20
2018-11-26T23:33:15.939Z,37.63
2018-11-26T23:35:45.132Z,35.97
2018-11-26T23:38:14.293Z,35.80
2018-11-26T23:40:43.597Z,33.77
2018-11-26T23:43:12.762Z,34.63
2018-11-26T23:45:41.942Z,33.20
2018-11-26T23:48:11.123Z,36.77
2018-11-26T23:50:40.279Z,35.27
2018-11-26T23:53:09.436Z,33.87
2018-11-26T23:55:38.613Z,36.20
2018-11-26T23:58:07.788Z,36.10
